Baddeck, Canada
Current Conditions -  °F | °C
As of 3:00 AM on Friday 31 Oct 2014 (Local Time) from CYQY Reporting Station
Few Clouds Few Clouds  
Wind Chill: 29°   Ceiling: Unl
Heat Index: 36°   Visibility: 15mi
Dew Point: 34°   Wind: 8mph
Humidity: 93%   Direction: 240°WSW
Pressure: 29.89"   Gusts: NA
Location:  46.1°N, 60.75°W
Report Text: CYQY 310600Z 24007KT 15SM FEW230 02/01 A2989 RMK CI2 SLP123
Loading
Personal Weather Stations






























Interactive Weather Map
Tropical Storm Tracking
New forecast layout! Learn more

10-Day Weather Forecast

Advertisements
Track Severe Weather on mobile